sensor_id;sensor_type;location;lat;lon;timestamp;pressure;altitude;pressure_sealevel;temperature
24639;BMP180;1641;51.306;12.384;2023-02-13T00:02:04;102322.00;;;9.60
24639;BMP180;1641;51.306;12.384;2023-02-13T00:04:29;102325.00;;;9.70
24639;BMP180;1641;51.306;12.384;2023-02-13T00:06:54;102327.00;;;9.90
24639;BMP180;1641;51.306;12.384;2023-02-13T00:09:19;102313.00;;;9.90
24639;BMP180;1641;51.306;12.384;2023-02-13T00:11:45;102321.00;;;9.80
24639;BMP180;1641;51.306;12.384;2023-02-13T00:14:10;102317.00;;;10.00
24639;BMP180;1641;51.306;12.384;2023-02-13T00:16:35;102312.00;;;10.00
24639;BMP180;1641;51.306;12.384;2023-02-13T00:19:00;102315.00;;;10.00
24639;BMP180;1641;51.306;12.384;2023-02-13T00:21:25;102312.00;;;10.00
24639;BMP180;1641;51.306;12.384;2023-02-13T00:23:51;102308.00;;;10.10
24639;BMP180;1641;51.306;12.384;2023-02-13T00:26:16;102314.00;;;10.20
24639;BMP180;1641;51.306;12.384;2023-02-13T00:28:42;102311.00;;;10.00
24639;BMP180;1641;51.306;12.384;2023-02-13T00:31:08;102304.00;;;9.90
24639;BMP180;1641;51.306;12.384;2023-02-13T00:33:33;102307.00;;;9.80
24639;BMP180;1641;51.306;12.384;2023-02-13T00:36:06;102299.00;;;9.80
24639;BMP180;1641;51.306;12.384;2023-02-13T00:38:31;102304.00;;;9.60
24639;BMP180;1641;51.306;12.384;2023-02-13T00:40:57;102303.00;;;9.80
24639;BMP180;1641;51.306;12.384;2023-02-13T00:43:22;102311.00;;;9.80
24639;BMP180;1641;51.306;12.384;2023-02-13T00:45:47;102314.00;;;9.90
24639;BMP180;1641;51.306;12.384;2023-02-13T00:48:12;102305.00;;;9.50
24639;BMP180;1641;51.306;12.384;2023-02-13T00:50:37;102299.00;;;9.90
24639;BMP180;1641;51.306;12.384;2023-02-13T00:53:02;102303.00;;;9.80
24639;BMP180;1641;51.306;12.384;2023-02-13T00:55:28;102296.00;;;9.60
24639;BMP180;1641;51.306;12.384;2023-02-13T00:57:53;102304.00;;;9.50
24639;BMP180;1641;51.306;12.384;2023-02-13T01:00:18;102293.00;;;9.60
24639;BMP180;1641;51.306;12.384;2023-02-13T01:02:43;102294.00;;;9.70
24639;BMP180;1641;51.306;12.384;2023-02-13T01:05:08;102304.00;;;9.50
24639;BMP180;1641;51.306;12.384;2023-02-13T01:07:34;102304.00;;;9.70
24639;BMP180;1641;51.306;12.384;2023-02-13T01:09:59;102307.00;;;9.50
24639;BMP180;1641;51.306;12.384;2023-02-13T01:12:24;102304.00;;;9.70
24639;BMP180;1641;51.306;12.384;2023-02-13T01:14:49;102302.00;;;9.70
24639;BMP180;1641;51.306;12.384;2023-02-13T01:17:15;102309.00;;;9.50
24639;BMP180;1641;51.306;12.384;2023-02-13T01:19:40;102305.00;;;9.40
24639;BMP180;1641;51.306;12.384;2023-02-13T01:22:06;102307.00;;;9.50
24639;BMP180;1641;51.306;12.384;2023-02-13T01:24:31;102305.00;;;9.80
24639;BMP180;1641;51.306;12.384;2023-02-13T01:26:57;102305.00;;;9.80
24639;BMP180;1641;51.306;12.384;2023-02-13T01:29:22;102304.00;;;9.70
24639;BMP180;1641;51.306;12.384;2023-02-13T01:31:47;102305.00;;;9.30
24639;BMP180;1641;51.306;12.384;2023-02-13T01:34:12;102307.00;;;9.30
24639;BMP180;1641;51.306;12.384;2023-02-13T01:36:38;102304.00;;;9.30
24639;BMP180;1641;51.306;12.384;2023-02-13T01:39:03;102297.00;;;9.30
24639;BMP180;1641;51.306;12.384;2023-02-13T01:41:28;102298.00;;;9.10
24639;BMP180;1641;51.306;12.384;2023-02-13T01:43:55;102294.00;;;9.60
24639;BMP180;1641;51.306;12.384;2023-02-13T01:46:25;102290.00;;;9.80
24639;BMP180;1641;51.306;12.384;2023-02-13T01:48:52;102294.00;;;9.60
24639;BMP180;1641;51.306;12.384;2023-02-13T01:51:19;102289.00;;;9.60
24639;BMP180;1641;51.306;12.384;2023-02-13T01:53:49;102290.00;;;9.50
24639;BMP180;1641;51.306;12.384;2023-02-13T01:56:17;102290.00;;;9.80
24639;BMP180;1641;51.306;12.384;2023-02-13T01:58:44;102292.00;;;10.10
24639;BMP180;1641;51.306;12.384;2023-02-13T02:01:10;102296.00;;;10.20
24639;BMP180;1641;51.306;12.384;2023-02-13T02:03:36;102289.00;;;10.10
24639;BMP180;1641;51.306;12.384;2023-02-13T02:06:02;102291.00;;;10.00
24639;BMP180;1641;51.306;12.384;2023-02-13T02:08:28;102286.00;;;9.90
24639;BMP180;1641;51.306;12.384;2023-02-13T02:10:55;102286.00;;;9.90
24639;BMP180;1641;51.306;12.384;2023-02-13T02:13:22;102279.00;;;9.60
24639;BMP180;1641;51.306;12.384;2023-02-13T02:15:47;102278.00;;;9.30
24639;BMP180;1641;51.306;12.384;2023-02-13T02:18:17;102286.00;;;9.30
24639;BMP180;1641;51.306;12.384;2023-02-13T02:20:59;102281.00;;;9.60
24639;BMP180;1641;51.306;12.384;2023-02-13T02:33:46;102267.00;;;9.50
24639;BMP180;1641;51.306;12.384;2023-02-13T02:36:17;102271.00;;;9.60
24639;BMP180;1641;51.306;12.384;2023-02-13T02:41:23;102267.00;;;9.20
24639;BMP180;1641;51.306;12.384;2023-02-13T02:47:08;102257.00;;;9.30
24639;BMP180;1641;51.306;12.384;2023-02-13T02:50:03;102257.00;;;9.10
24639;BMP180;1641;51.306;12.384;2023-02-13T02:55:04;102266.00;;;8.80
24639;BMP180;1641;51.306;12.384;2023-02-13T02:57:32;102259.00;;;8.90
24639;BMP180;1641;51.306;12.384;2023-02-13T03:00:18;102274.00;;;9.10
24639;BMP180;1641;51.306;12.384;2023-02-13T03:03:17;102266.00;;;9.30
24639;BMP180;1641;51.306;12.384;2023-02-13T03:06:01;102277.00;;;9.20
24639;BMP180;1641;51.306;12.384;2023-02-13T03:08:42;102272.00;;;9.10
24639;BMP180;1641;51.306;12.384;2023-02-13T03:11:34;102274.00;;;9.20
24639;BMP180;1641;51.306;12.384;2023-02-13T03:14:19;102273.00;;;8.40
24639;BMP180;1641;51.306;12.384;2023-02-13T03:16:45;102270.00;;;8.20
24639;BMP180;1641;51.306;12.384;2023-02-13T03:22:35;102280.00;;;8.20
24639;BMP180;1641;51.306;12.384;2023-02-13T03:25:05;102281.00;;;8.80
24639;BMP180;1641;51.306;12.384;2023-02-13T03:30:37;102278.00;;;8.40
24639;BMP180;1641;51.306;12.384;2023-02-13T03:35:37;102278.00;;;8.30
24639;BMP180;1641;51.306;12.384;2023-02-13T03:38:26;102277.00;;;8.30
24639;BMP180;1641;51.306;12.384;2023-02-13T03:41:06;102277.00;;;8.40
24639;BMP180;1641;51.306;12.384;2023-02-13T03:46:09;102280.00;;;8.60
24639;BMP180;1641;51.306;12.384;2023-02-13T03:48:38;102278.00;;;8.90
24639;BMP180;1641;51.306;12.384;2023-02-13T03:51:33;102277.00;;;8.80
24639;BMP180;1641;51.306;12.384;2023-02-13T03:54:01;102280.00;;;8.40
24639;BMP180;1641;51.306;12.384;2023-02-13T03:56:27;102290.00;;;8.30
24639;BMP180;1641;51.306;12.384;2023-02-13T03:59:18;102280.00;;;8.40
24639;BMP180;1641;51.306;12.384;2023-02-13T04:01:49;102285.00;;;8.30
24639;BMP180;1641;51.306;12.384;2023-02-13T04:07:06;102295.00;;;8.40
24639;BMP180;1641;51.306;12.384;2023-02-13T04:09:33;102289.00;;;8.30
24639;BMP180;1641;51.306;12.384;2023-02-13T04:12:02;102289.00;;;8.30
24639;BMP180;1641;51.306;12.384;2023-02-13T04:14:42;102290.00;;;8.40
24639;BMP180;1641;51.306;12.384;2023-02-13T04:17:21;102297.00;;;8.80
24639;BMP180;1641;51.306;12.384;2023-02-13T04:19:50;102287.00;;;9.10
24639;BMP180;1641;51.306;12.384;2023-02-13T04:22:15;102283.00;;;9.20
24639;BMP180;1641;51.306;12.384;2023-02-13T04:24:40;102282.00;;;9.40
24639;BMP180;1641;51.306;12.384;2023-02-13T04:27:06;102281.00;;;9.50
24639;BMP180;1641;51.306;12.384;2023-02-13T04:29:40;102287.00;;;9.20
24639;BMP180;1641;51.306;12.384;2023-02-13T04:32:05;102282.00;;;9.30
24639;BMP180;1641;51.306;12.384;2023-02-13T04:34:30;102292.00;;;9.30
24639;BMP180;1641;51.306;12.384;2023-02-13T04:36:58;102279.00;;;9.30
24639;BMP180;1641;51.306;12.384;2023-02-13T04:39:24;102282.00;;;9.40
24639;BMP180;1641;51.306;12.384;2023-02-13T04:41:55;102286.00;;;9.10
24639;BMP180;1641;51.306;12.384;2023-02-13T04:44:20;102286.00;;;9.30
24639;BMP180;1641;51.306;12.384;2023-02-13T04:46:48;102289.00;;;9.30
24639;BMP180;1641;51.306;12.384;2023-02-13T04:49:13;102288.00;;;9.00
24639;BMP180;1641;51.306;12.384;2023-02-13T04:51:39;102277.00;;;8.60
24639;BMP180;1641;51.306;12.384;2023-02-13T04:54:04;102284.00;;;8.30
24639;BMP180;1641;51.306;12.384;2023-02-13T04:56:29;102275.00;;;8.10
24639;BMP180;1641;51.306;12.384;2023-02-13T04:58:54;102289.00;;;8.40
24639;BMP180;1641;51.306;12.384;2023-02-13T05:01:20;102290.00;;;8.40
24639;BMP180;1641;51.306;12.384;2023-02-13T05:03:46;102283.00;;;8.20
24639;BMP180;1641;51.306;12.384;2023-02-13T05:06:11;102276.00;;;8.00
24639;BMP180;1641;51.306;12.384;2023-02-13T05:08:36;102285.00;;;7.90
24639;BMP180;1641;51.306;12.384;2023-02-13T05:11:17;102280.00;;;8.10
24639;BMP180;1641;51.306;12.384;2023-02-13T05:13:42;102288.00;;;8.40
24639;BMP180;1641;51.306;12.384;2023-02-13T05:16:07;102289.00;;;8.40
24639;BMP180;1641;51.306;12.384;2023-02-13T05:18:32;102284.00;;;8.50
24639;BMP180;1641;51.306;12.384;2023-02-13T05:20:58;102294.00;;;8.50
24639;BMP180;1641;51.306;12.384;2023-02-13T05:23:57;102294.00;;;8.30
24639;BMP180;1641;51.306;12.384;2023-02-13T05:26:22;102295.00;;;8.40
24639;BMP180;1641;51.306;12.384;2023-02-13T05:28:47;102289.00;;;8.50
24639;BMP180;1641;51.306;12.384;2023-02-13T05:31:31;102291.00;;;9.10
24639;BMP180;1641;51.306;12.384;2023-02-13T05:34:12;102282.00;;;9.00
24639;BMP180;1641;51.306;12.384;2023-02-13T05:36:37;102281.00;;;8.90
24639;BMP180;1641;51.306;12.384;2023-02-13T05:39:02;102287.00;;;8.80
24639;BMP180;1641;51.306;12.384;2023-02-13T05:41:27;102285.00;;;8.80
24639;BMP180;1641;51.306;12.384;2023-02-13T05:44:02;102286.00;;;8.70
24639;BMP180;1641;51.306;12.384;2023-02-13T05:46:27;102275.00;;;8.60
24639;BMP180;1641;51.306;12.384;2023-02-13T05:48:52;102282.00;;;8.80
24639;BMP180;1641;51.306;12.384;2023-02-13T05:51:18;102281.00;;;8.90
24639;BMP180;1641;51.306;12.384;2023-02-13T05:53:43;102281.00;;;8.80
24639;BMP180;1641;51.306;12.384;2023-02-13T05:56:08;102281.00;;;8.80
24639;BMP180;1641;51.306;12.384;2023-02-13T05:58:34;102275.00;;;9.10
24639;BMP180;1641;51.306;12.384;2023-02-13T06:01:05;102282.00;;;9.00
24639;BMP180;1641;51.306;12.384;2023-02-13T06:03:31;102251.00;;;8.90
24639;BMP180;1641;51.306;12.384;2023-02-13T06:06:02;102283.00;;;8.90
24639;BMP180;1641;51.306;12.384;2023-02-13T06:08:30;102283.00;;;8.90
24639;BMP180;1641;51.306;12.384;2023-02-13T06:10:55;102279.00;;;8.70
24639;BMP180;1641;51.306;12.384;2023-02-13T06:13:21;102281.00;;;8.90
24639;BMP180;1641;51.306;12.384;2023-02-13T06:15:52;102274.00;;;8.90
24639;BMP180;1641;51.306;12.384;2023-02-13T06:18:17;102254.00;;;8.80
24639;BMP180;1641;51.306;12.384;2023-02-13T06:20:43;102287.00;;;8.90
24639;BMP180;1641;51.306;12.384;2023-02-13T06:23:08;102283.00;;;9.10
24639;BMP180;1641;51.306;12.384;2023-02-13T06:25:38;102289.00;;;9.00
24639;BMP180;1641;51.306;12.384;2023-02-13T06:28:21;102281.00;;;9.10
24639;BMP180;1641;51.306;12.384;2023-02-13T06:30:47;102289.00;;;9.10
24639;BMP180;1641;51.306;12.384;2023-02-13T06:33:12;102289.00;;;9.00
24639;BMP180;1641;51.306;12.384;2023-02-13T06:35:38;102295.00;;;8.80
24639;BMP180;1641;51.306;12.384;2023-02-13T06:38:09;102297.00;;;8.80
24639;BMP180;1641;51.306;12.384;2023-02-13T06:40:34;102286.00;;;9.10
24639;BMP180;1641;51.306;12.384;2023-02-13T06:42:59;102290.00;;;9.10
24639;BMP180;1641;51.306;12.384;2023-02-13T06:45:33;102282.00;;;9.20
24639;BMP180;1641;51.306;12.384;2023-02-13T06:47:58;102286.00;;;8.90
24639;BMP180;1641;51.306;12.384;2023-02-13T06:50:36;102281.00;;;8.80
24639;BMP180;1641;51.306;12.384;2023-02-13T06:53:01;102296.00;;;9.20
24639;BMP180;1641;51.306;12.384;2023-02-13T06:55:27;102293.00;;;9.10
24639;BMP180;1641;51.306;12.384;2023-02-13T06:57:52;102295.00;;;9.20
24639;BMP180;1641;51.306;12.384;2023-02-13T07:00:17;102296.00;;;9.30
24639;BMP180;1641;51.306;12.384;2023-02-13T07:02:46;102298.00;;;9.20
24639;BMP180;1641;51.306;12.384;2023-02-13T07:05:11;102300.00;;;9.30
24639;BMP180;1641;51.306;12.384;2023-02-13T07:07:40;102305.00;;;9.20
24639;BMP180;1641;51.306;12.384;2023-02-13T07:10:06;102305.00;;;9.20
24639;BMP180;1641;51.306;12.384;2023-02-13T07:12:32;102306.00;;;8.70
24639;BMP180;1641;51.306;12.384;2023-02-13T07:14:58;102309.00;;;9.00
24639;BMP180;1641;51.306;12.384;2023-02-13T07:17:23;102315.00;;;9.10
24639;BMP180;1641;51.306;12.384;2023-02-13T07:19:51;102322.00;;;9.30
24639;BMP180;1641;51.306;12.384;2023-02-13T07:22:17;102321.00;;;9.50
24639;BMP180;1641;51.306;12.384;2023-02-13T07:24:42;102318.00;;;9.30
24639;BMP180;1641;51.306;12.384;2023-02-13T07:27:10;102319.00;;;9.10
24639;BMP180;1641;51.306;12.384;2023-02-13T07:29:38;102328.00;;;9.10
24639;BMP180;1641;51.306;12.384;2023-02-13T07:34:47;102332.00;;;9.40
24639;BMP180;1641;51.306;12.384;2023-02-13T07:37:16;102329.00;;;9.40
24639;BMP180;1641;51.306;12.384;2023-02-13T07:39:41;102330.00;;;9.60
24639;BMP180;1641;51.306;12.384;2023-02-13T07:42:09;102325.00;;;9.60
24639;BMP180;1641;51.306;12.384;2023-02-13T07:47:29;102335.00;;;9.20
24639;BMP180;1641;51.306;12.384;2023-02-13T07:49:54;102332.00;;;9.50
24639;BMP180;1641;51.306;12.384;2023-02-13T07:52:38;102335.00;;;9.60
24639;BMP180;1641;51.306;12.384;2023-02-13T07:58:06;102342.00;;;9.60
24639;BMP180;1641;51.306;12.384;2023-02-13T08:03:30;102338.00;;;9.70
24639;BMP180;1641;51.306;12.384;2023-02-13T08:06:02;102337.00;;;9.50
24639;BMP180;1641;51.306;12.384;2023-02-13T08:11:51;102348.00;;;9.60
24639;BMP180;1641;51.306;12.384;2023-02-13T08:14:23;102344.00;;;9.20
24639;BMP180;1641;51.306;12.384;2023-02-13T08:16:57;102345.00;;;9.40
24639;BMP180;1641;51.306;12.384;2023-02-13T08:19:25;102344.00;;;9.40
24639;BMP180;1641;51.306;12.384;2023-02-13T08:21:53;102346.00;;;9.40
24639;BMP180;1641;51.306;12.384;2023-02-13T08:27:23;102327.00;;;9.50
24639;BMP180;1641;51.306;12.384;2023-02-13T08:29:48;102349.00;;;8.90
24639;BMP180;1641;51.306;12.384;2023-02-13T08:32:15;102344.00;;;8.90
24639;BMP180;1641;51.306;12.384;2023-02-13T08:34:40;102340.00;;;9.00
24639;BMP180;1641;51.306;12.384;2023-02-13T08:37:05;102340.00;;;9.20
24639;BMP180;1641;51.306;12.384;2023-02-13T08:45:18;102350.00;;;9.70
24639;BMP180;1641;51.306;12.384;2023-02-13T08:47:43;102348.00;;;9.50
24639;BMP180;1641;51.306;12.384;2023-02-13T08:52:52;102346.00;;;9.90
24639;BMP180;1641;51.306;12.384;2023-02-13T08:55:27;102350.00;;;9.70
24639;BMP180;1641;51.306;12.384;2023-02-13T08:58:03;102349.00;;;9.80
24639;BMP180;1641;51.306;12.384;2023-02-13T09:00:32;102344.00;;;9.30
24639;BMP180;1641;51.306;12.384;2023-02-13T09:03:00;102353.00;;;9.10
24639;BMP180;1641;51.306;12.384;2023-02-13T09:05:32;102344.00;;;9.10
24639;BMP180;1641;51.306;12.384;2023-02-13T09:10:41;102358.00;;;9.60
24639;BMP180;1641;51.306;12.384;2023-02-13T09:13:17;102358.00;;;9.80
24639;BMP180;1641;51.306;12.384;2023-02-13T09:15:43;102359.00;;;9.50
24639;BMP180;1641;51.306;12.384;2023-02-13T09:18:23;102358.00;;;9.90
24639;BMP180;1641;51.306;12.384;2023-02-13T09:20:49;102358.00;;;8.90
24639;BMP180;1641;51.306;12.384;2023-02-13T09:26:02;102358.00;;;9.50
24639;BMP180;1641;51.306;12.384;2023-02-13T09:28:39;102358.00;;;9.70
24639;BMP180;1641;51.306;12.384;2023-02-13T09:31:17;102366.00;;;9.80
24639;BMP180;1641;51.306;12.384;2023-02-13T09:33:43;102361.00;;;9.70
24639;BMP180;1641;51.306;12.384;2023-02-13T09:36:13;102358.00;;;9.40
24639;BMP180;1641;51.306;12.384;2023-02-13T09:38:38;102362.00;;;9.30
24639;BMP180;1641;51.306;12.384;2023-02-13T09:41:20;102361.00;;;9.70
24639;BMP180;1641;51.306;12.384;2023-02-13T09:43:51;102357.00;;;9.30
24639;BMP180;1641;51.306;12.384;2023-02-13T09:46:24;102365.00;;;9.20
24639;BMP180;1641;51.306;12.384;2023-02-13T09:48:52;102365.00;;;9.50
24639;BMP180;1641;51.306;12.384;2023-02-13T09:51:20;102372.00;;;9.70
24639;BMP180;1641;51.306;12.384;2023-02-13T09:53:51;102365.00;;;9.40
24639;BMP180;1641;51.306;12.384;2023-02-13T09:56:16;102373.00;;;9.40
24639;BMP180;1641;51.306;12.384;2023-02-13T09:58:48;102374.00;;;9.30
24639;BMP180;1641;51.306;12.384;2023-02-13T10:03:50;102372.00;;;9.90
24639;BMP180;1641;51.306;12.384;2023-02-13T10:06:39;102377.00;;;9.40
24639;BMP180;1641;51.306;12.384;2023-02-13T10:12:03;102369.00;;;9.50
24639;BMP180;1641;51.306;12.384;2023-02-13T10:14:46;102366.00;;;9.30
24639;BMP180;1641;51.306;12.384;2023-02-13T10:17:16;102361.00;;;9.20
24639;BMP180;1641;51.306;12.384;2023-02-13T10:19:52;102364.00;;;9.40
24639;BMP180;1641;51.306;12.384;2023-02-13T10:25:26;102354.00;;;9.80
24639;BMP180;1641;51.306;12.384;2023-02-13T10:30:55;102356.00;;;9.80
24639;BMP180;1641;51.306;12.384;2023-02-13T10:36:24;102356.00;;;9.20
24639;BMP180;1641;51.306;12.384;2023-02-13T10:44:19;102346.00;;;9.00
24639;BMP180;1641;51.306;12.384;2023-02-13T10:47:08;102340.00;;;9.10
24639;BMP180;1641;51.306;12.384;2023-02-13T10:57:47;102335.00;;;9.40
24639;BMP180;1641;51.306;12.384;2023-02-13T11:02:45;102300.00;;;9.60
24639;BMP180;1641;51.306;12.384;2023-02-13T11:05:20;102321.00;;;9.90
24639;BMP180;1641;51.306;12.384;2023-02-13T11:07:47;102321.00;;;9.60
24639;BMP180;1641;51.306;12.384;2023-02-13T11:10:20;102302.00;;;9.40
24639;BMP180;1641;51.306;12.384;2023-02-13T11:12:46;102310.00;;;9.70
24639;BMP180;1641;51.306;12.384;2023-02-13T11:15:31;102321.00;;;9.30
24639;BMP180;1641;51.306;12.384;2023-02-13T11:18:09;102308.00;;;9.00
24639;BMP180;1641;51.306;12.384;2023-02-13T11:20:40;102315.00;;;9.00
24639;BMP180;1641;51.306;12.384;2023-02-13T11:23:16;102317.00;;;8.90
24639;BMP180;1641;51.306;12.384;2023-02-13T11:25:55;102326.00;;;9.20
24639;BMP180;1641;51.306;12.384;2023-02-13T11:28:21;102317.00;;;8.90
24639;BMP180;1641;51.306;12.384;2023-02-13T11:30:46;102307.00;;;8.70
24639;BMP180;1641;51.306;12.384;2023-02-13T11:33:21;102303.00;;;9.00
24639;BMP180;1641;51.306;12.384;2023-02-13T11:35:46;102306.00;;;9.40
24639;BMP180;1641;51.306;12.384;2023-02-13T11:38:19;102291.00;;;9.60
24639;BMP180;1641;51.306;12.384;2023-02-13T11:40:50;102304.00;;;9.40
24639;BMP180;1641;51.306;12.384;2023-02-13T11:43:29;102315.00;;;9.50
24639;BMP180;1641;51.306;12.384;2023-02-13T11:46:17;102286.00;;;9.90
24639;BMP180;1641;51.306;12.384;2023-02-13T11:49:02;102299.00;;;9.70
24639;BMP180;1641;51.306;12.384;2023-02-13T11:51:38;102299.00;;;9.70
24639;BMP180;1641;51.306;12.384;2023-02-13T11:54:05;102297.00;;;9.80
24639;BMP180;1641;51.306;12.384;2023-02-13T11:56:47;102292.00;;;9.50
24639;BMP180;1641;51.306;12.384;2023-02-13T11:59:13;102277.00;;;9.30
24639;BMP180;1641;51.306;12.384;2023-02-13T12:01:38;102291.00;;;9.30
24639;BMP180;1641;51.306;12.384;2023-02-13T12:06:34;102285.00;;;9.90
24639;BMP180;1641;51.306;12.384;2023-02-13T12:09:09;102286.00;;;10.10
24639;BMP180;1641;51.306;12.384;2023-02-13T12:11:48;102284.00;;;10.00
24639;BMP180;1641;51.306;12.384;2023-02-13T12:14:20;102311.00;;;10.10
24639;BMP180;1641;51.306;12.384;2023-02-13T12:16:50;102312.00;;;10.00
24639;BMP180;1641;51.306;12.384;2023-02-13T12:19:22;102316.00;;;9.80
24639;BMP180;1641;51.306;12.384;2023-02-13T12:22:11;102295.00;;;10.40
24639;BMP180;1641;51.306;12.384;2023-02-13T12:27:49;102291.00;;;9.30
24639;BMP180;1641;51.306;12.384;2023-02-13T12:33:30;102291.00;;;10.40
24639;BMP180;1641;51.306;12.384;2023-02-13T12:36:21;102287.00;;;10.50
24639;BMP180;1641;51.306;12.384;2023-02-13T12:39:01;102273.00;;;9.70
24639;BMP180;1641;51.306;12.384;2023-02-13T12:41:58;102270.00;;;9.70
24639;BMP180;1641;51.306;12.384;2023-02-13T12:44:49;102239.00;;;9.90
24639;BMP180;1641;51.306;12.384;2023-02-13T12:47:20;102258.00;;;10.20
24639;BMP180;1641;51.306;12.384;2023-02-13T12:50:13;102272.00;;;9.70
24639;BMP180;1641;51.306;12.384;2023-02-13T12:55:59;102256.00;;;9.90
24639;BMP180;1641;51.306;12.384;2023-02-13T12:58:48;102254.00;;;9.80
24639;BMP180;1641;51.306;12.384;2023-02-13T13:01:45;102260.00;;;10.20
24639;BMP180;1641;51.306;12.384;2023-02-13T13:07:39;102262.00;;;9.80
24639;BMP180;1641;51.306;12.384;2023-02-13T13:16:35;102251.00;;;10.60
24639;BMP180;1641;51.306;12.384;2023-02-13T13:22:24;102244.00;;;10.30
24639;BMP180;1641;51.306;12.384;2023-02-13T13:30:32;102250.00;;;10.30
24639;BMP180;1641;51.306;12.384;2023-02-13T13:33:17;102245.00;;;10.40
24639;BMP180;1641;51.306;12.384;2023-02-13T13:35:52;102234.00;;;9.50
24639;BMP180;1641;51.306;12.384;2023-02-13T13:38:46;102243.00;;;9.70
24639;BMP180;1641;51.306;12.384;2023-02-13T13:47:12;102247.00;;;9.00
24639;BMP180;1641;51.306;12.384;2023-02-13T13:49:54;102247.00;;;9.50
24639;BMP180;1641;51.306;12.384;2023-02-13T13:52:28;102249.00;;;10.20
24639;BMP180;1641;51.306;12.384;2023-02-13T13:54:56;102240.00;;;10.10
24639;BMP180;1641;51.306;12.384;2023-02-13T13:57:23;102242.00;;;10.20
24639;BMP180;1641;51.306;12.384;2023-02-13T14:06:03;102222.00;;;9.60
24639;BMP180;1641;51.306;12.384;2023-02-13T14:11:28;102245.00;;;10.30
24639;BMP180;1641;51.306;12.384;2023-02-13T14:13:54;102249.00;;;10.10
24639;BMP180;1641;51.306;12.384;2023-02-13T14:19:37;102238.00;;;10.20
24639;BMP180;1641;51.306;12.384;2023-02-13T14:27:21;102243.00;;;9.70
24639;BMP180;1641;51.306;12.384;2023-02-13T14:30:04;102235.00;;;10.20
24639;BMP180;1641;51.306;12.384;2023-02-13T14:32:36;102240.00;;;10.20
24639;BMP180;1641;51.306;12.384;2023-02-13T14:35:23;102247.00;;;9.90
24639;BMP180;1641;51.306;12.384;2023-02-13T14:37:52;102240.00;;;9.70
24639;BMP180;1641;51.306;12.384;2023-02-13T14:45:47;102246.00;;;9.70
24639;BMP180;1641;51.306;12.384;2023-02-13T14:48:13;102224.00;;;10.00
24639;BMP180;1641;51.306;12.384;2023-02-13T14:50:51;102242.00;;;10.00
24639;BMP180;1641;51.306;12.384;2023-02-13T14:53:21;102239.00;;;10.10
24639;BMP180;1641;51.306;12.384;2023-02-13T14:55:55;102244.00;;;10.20
24639;BMP180;1641;51.306;12.384;2023-02-13T14:58:28;102238.00;;;9.70
24639;BMP180;1641;51.306;12.384;2023-02-13T15:01:03;102222.00;;;9.30
24639;BMP180;1641;51.306;12.384;2023-02-13T15:03:40;102150.00;;;9.40
24639;BMP180;1641;51.306;12.384;2023-02-13T15:06:33;102159.00;;;9.30
24639;BMP180;1641;51.306;12.384;2023-02-13T15:09:00;102222.00;;;9.60
24639;BMP180;1641;51.306;12.384;2023-02-13T15:11:36;102217.00;;;10.00
24639;BMP180;1641;51.306;12.384;2023-02-13T15:14:34;102220.00;;;10.00
24639;BMP180;1641;51.306;12.384;2023-02-13T15:17:07;102216.00;;;10.00
24639;BMP180;1641;51.306;12.384;2023-02-13T15:19:35;102210.00;;;10.30
24639;BMP180;1641;51.306;12.384;2023-02-13T15:22:03;102222.00;;;10.50
24639;BMP180;1641;51.306;12.384;2023-02-13T15:24:35;102203.00;;;10.20
24639;BMP180;1641;51.306;12.384;2023-02-13T15:27:04;102186.00;;;10.00
24639;BMP180;1641;51.306;12.384;2023-02-13T15:29:31;102198.00;;;9.70
24639;BMP180;1641;51.306;12.384;2023-02-13T15:31:56;102211.00;;;9.80
24639;BMP180;1641;51.306;12.384;2023-02-13T15:34:31;102196.00;;;9.50
24639;BMP180;1641;51.306;12.384;2023-02-13T15:36:59;102206.00;;;9.30
24639;BMP180;1641;51.306;12.384;2023-02-13T15:39:29;102196.00;;;9.70
24639;BMP180;1641;51.306;12.384;2023-02-13T15:41:58;102195.00;;;10.00
24639;BMP180;1641;51.306;12.384;2023-02-13T15:44:28;102194.00;;;10.10
24639;BMP180;1641;51.306;12.384;2023-02-13T15:47:01;102119.00;;;9.70
24639;BMP180;1641;51.306;12.384;2023-02-13T15:49:35;102187.00;;;9.90
24639;BMP180;1641;51.306;12.384;2023-02-13T15:52:13;102151.00;;;10.00
24639;BMP180;1641;51.306;12.384;2023-02-13T15:54:47;102200.00;;;9.90
24639;BMP180;1641;51.306;12.384;2023-02-13T15:57:13;102172.00;;;9.80
24639;BMP180;1641;51.306;12.384;2023-02-13T15:59:40;102163.00;;;9.90
24639;BMP180;1641;51.306;12.384;2023-02-13T16:02:13;102164.00;;;10.10
24639;BMP180;1641;51.306;12.384;2023-02-13T16:04:41;102192.00;;;9.60
24639;BMP180;1641;51.306;12.384;2023-02-13T16:07:09;102188.00;;;9.80
24639;BMP180;1641;51.306;12.384;2023-02-13T16:09:35;102164.00;;;9.80
24639;BMP180;1641;51.306;12.384;2023-02-13T16:12:18;102170.00;;;10.10
24639;BMP180;1641;51.306;12.384;2023-02-13T16:14:57;102173.00;;;9.70
24639;BMP180;1641;51.306;12.384;2023-02-13T16:17:38;102177.00;;;9.10
24639;BMP180;1641;51.306;12.384;2023-02-13T16:23:04;102179.00;;;9.40
24639;BMP180;1641;51.306;12.384;2023-02-13T16:25:35;102178.00;;;9.60
24639;BMP180;1641;51.306;12.384;2023-02-13T16:30:38;102177.00;;;9.40
24639;BMP180;1641;51.306;12.384;2023-02-13T16:35:44;102186.00;;;9.60
24639;BMP180;1641;51.306;12.384;2023-02-13T16:38:43;102185.00;;;9.50
24639;BMP180;1641;51.306;12.384;2023-02-13T16:43:50;102186.00;;;9.20
24639;BMP180;1641;51.306;12.384;2023-02-13T16:51:32;102195.00;;;9.60
24639;BMP180;1641;51.306;12.384;2023-02-13T16:54:00;102181.00;;;9.40
24639;BMP180;1641;51.306;12.384;2023-02-13T16:56:36;102191.00;;;9.60
24639;BMP180;1641;51.306;12.384;2023-02-13T17:01:38;102191.00;;;9.70
24639;BMP180;1641;51.306;12.384;2023-02-13T17:04:18;102201.00;;;9.80
24639;BMP180;1641;51.306;12.384;2023-02-13T17:06:43;102209.00;;;9.70
24639;BMP180;1641;51.306;12.384;2023-02-13T17:09:09;102208.00;;;9.50
24639;BMP180;1641;51.306;12.384;2023-02-13T17:11:34;102211.00;;;9.20
24639;BMP180;1641;51.306;12.384;2023-02-13T17:13:59;102216.00;;;9.00
24639;BMP180;1641;51.306;12.384;2023-02-13T17:16:25;102214.00;;;9.00
24639;BMP180;1641;51.306;12.384;2023-02-13T17:18:50;102193.00;;;9.00
24639;BMP180;1641;51.306;12.384;2023-02-13T17:21:15;102198.00;;;9.00